sensor_id;sensor_type;location;lat;lon;timestamp;P1;durP1;ratioP1;P2;durP2;ratioP2
45114;SDS011;30877;43.706;10.780;2022-10-23T00:01:18;10.55;;;6.82;;
45114;SDS011;30877;43.706;10.780;2022-10-23T00:03:49;9.95;;;6.22;;
45114;SDS011;30877;43.706;10.780;2022-10-23T00:06:18;7.68;;;6.13;;
45114;SDS011;30877;43.706;10.780;2022-10-23T00:08:47;10.95;;;6.50;;
45114;SDS011;30877;43.706;10.780;2022-10-23T00:11:17;12.18;;;6.80;;
45114;SDS011;30877;43.706;10.780;2022-10-23T00:13:47;14.45;;;6.60;;
45114;SDS011;30877;43.706;10.780;2022-10-23T00:16:16;10.05;;;6.50;;
45114;SDS011;30877;43.706;10.780;2022-10-23T00:18:45;7.97;;;6.05;;
45114;SDS011;30877;43.706;10.780;2022-10-23T00:21:14;10.57;;;6.18;;
45114;SDS011;30877;43.706;10.780;2022-10-23T00:23:43;9.80;;;6.05;;
45114;SDS011;30877;43.706;10.780;2022-10-23T00:26:12;11.15;;;5.90;;
45114;SDS011;30877;43.706;10.780;2022-10-23T00:28:43;12.68;;;6.40;;
45114;SDS011;30877;43.706;10.780;2022-10-23T00:31:13;9.50;;;5.75;;
45114;SDS011;30877;43.706;10.780;2022-10-23T00:33:42;11.88;;;6.03;;
45114;SDS011;30877;43.706;10.780;2022-10-23T00:36:11;9.63;;;5.25;;
45114;SDS011;30877;43.706;10.780;2022-10-23T00:38:42;13.95;;;6.80;;
45114;SDS011;30877;43.706;10.780;2022-10-23T00:41:13;14.50;;;6.30;;
45114;SDS011;30877;43.706;10.780;2022-10-23T00:44:00;11.55;;;6.75;;
45114;SDS011;30877;43.706;10.780;2022-10-23T00:46:32;11.25;;;5.60;;
45114;SDS011;30877;43.706;10.780;2022-10-23T00:49:01;15.40;;;6.30;;
45114;SDS011;30877;43.706;10.780;2022-10-23T00:51:33;10.65;;;5.78;;
45114;SDS011;30877;43.706;10.780;2022-10-23T00:54:05;10.32;;;6.07;;
45114;SDS011;30877;43.706;10.780;2022-10-23T00:56:51;10.40;;;6.35;;
45114;SDS011;30877;43.706;10.780;2022-10-23T00:59:23;11.57;;;5.45;;
45114;SDS011;30877;43.706;10.780;2022-10-23T01:01:52;10.60;;;5.95;;
45114;SDS011;30877;43.706;10.780;2022-10-23T01:04:21;9.98;;;6.47;;
45114;SDS011;30877;43.706;10.780;2022-10-23T01:06:51;10.38;;;5.80;;
45114;SDS011;30877;43.706;10.780;2022-10-23T01:09:27;11.07;;;5.80;;
45114;SDS011;30877;43.706;10.780;2022-10-23T01:14:36;11.93;;;5.53;;
45114;SDS011;30877;43.706;10.780;2022-10-23T01:17:11;8.85;;;5.65;;
45114;SDS011;30877;43.706;10.780;2022-10-23T01:19:47;10.23;;;5.60;;
45114;SDS011;30877;43.706;10.780;2022-10-23T01:22:29;7.63;;;4.88;;
45114;SDS011;30877;43.706;10.780;2022-10-23T01:25:09;9.90;;;5.70;;
45114;SDS011;30877;43.706;10.780;2022-10-23T01:27:50;8.02;;;5.55;;
45114;SDS011;30877;43.706;10.780;2022-10-23T01:30:22;9.43;;;5.60;;
45114;SDS011;30877;43.706;10.780;2022-10-23T01:32:51;10.82;;;5.80;;
45114;SDS011;30877;43.706;10.780;2022-10-23T01:35:23;9.57;;;5.40;;
45114;SDS011;30877;43.706;10.780;2022-10-23T01:38:00;7.63;;;5.65;;
45114;SDS011;30877;43.706;10.780;2022-10-23T01:40:32;8.65;;;5.38;;
45114;SDS011;30877;43.706;10.780;2022-10-23T01:43:07;9.82;;;5.75;;
45114;SDS011;30877;43.706;10.780;2022-10-23T01:45:44;9.90;;;6.00;;
45114;SDS011;30877;43.706;10.780;2022-10-23T01:48:22;8.82;;;6.25;;
45114;SDS011;30877;43.706;10.780;2022-10-23T01:50:53;10.23;;;5.40;;
45114;SDS011;30877;43.706;10.780;2022-10-23T01:53:25;9.30;;;5.63;;
45114;SDS011;30877;43.706;10.780;2022-10-23T01:55:57;7.65;;;5.75;;
45114;SDS011;30877;43.706;10.780;2022-10-23T01:58:29;9.23;;;5.63;;
45114;SDS011;30877;43.706;10.780;2022-10-23T02:01:00;10.93;;;5.47;;
45114;SDS011;30877;43.706;10.780;2022-10-23T02:03:32;7.32;;;5.10;;
45114;SDS011;30877;43.706;10.780;2022-10-23T02:06:01;8.52;;;5.75;;
45114;SDS011;30877;43.706;10.780;2022-10-23T02:08:30;11.13;;;6.07;;
45114;SDS011;30877;43.706;10.780;2022-10-23T02:11:00;7.45;;;5.85;;
45114;SDS011;30877;43.706;10.780;2022-10-23T02:13:36;9.48;;;5.32;;
45114;SDS011;30877;43.706;10.780;2022-10-23T02:16:18;9.40;;;5.63;;
45114;SDS011;30877;43.706;10.780;2022-10-23T02:18:54;8.63;;;5.75;;
45114;SDS011;30877;43.706;10.780;2022-10-23T02:21:30;10.85;;;5.60;;
45114;SDS011;30877;43.706;10.780;2022-10-23T02:24:06;11.13;;;5.53;;
45114;SDS011;30877;43.706;10.780;2022-10-23T02:26:45;8.70;;;5.63;;
45114;SDS011;30877;43.706;10.780;2022-10-23T02:29:23;8.25;;;5.18;;
45114;SDS011;30877;43.706;10.780;2022-10-23T02:31:56;11.18;;;5.00;;
45114;SDS011;30877;43.706;10.780;2022-10-23T02:34:25;9.43;;;5.15;;
45114;SDS011;30877;43.706;10.780;2022-10-23T02:36:53;8.27;;;5.35;;
45114;SDS011;30877;43.706;10.780;2022-10-23T02:39:22;9.07;;;5.20;;
45114;SDS011;30877;43.706;10.780;2022-10-23T02:41:54;11.65;;;6.20;;
45114;SDS011;30877;43.706;10.780;2022-10-23T02:44:34;8.60;;;5.63;;
45114;SDS011;30877;43.706;10.780;2022-10-23T02:47:12;12.50;;;6.18;;
45114;SDS011;30877;43.706;10.780;2022-10-23T02:49:49;10.63;;;5.72;;
45114;SDS011;30877;43.706;10.780;2022-10-23T02:52:20;7.43;;;5.20;;
45114;SDS011;30877;43.706;10.780;2022-10-23T02:54:59;10.63;;;6.15;;
45114;SDS011;30877;43.706;10.780;2022-10-23T02:57:46;8.73;;;5.57;;
45114;SDS011;30877;43.706;10.780;2022-10-23T03:00:21;7.40;;;5.22;;
45114;SDS011;30877;43.706;10.780;2022-10-23T03:02:52;9.00;;;5.75;;
45114;SDS011;30877;43.706;10.780;2022-10-23T03:05:27;7.65;;;5.55;;
45114;SDS011;30877;43.706;10.780;2022-10-23T03:07:57;7.88;;;5.20;;
45114;SDS011;30877;43.706;10.780;2022-10-23T03:10:26;9.40;;;5.63;;
45114;SDS011;30877;43.706;10.780;2022-10-23T03:12:54;9.00;;;5.93;;
45114;SDS011;30877;43.706;10.780;2022-10-23T03:15:24;9.27;;;5.43;;
45114;SDS011;30877;43.706;10.780;2022-10-23T03:17:52;9.18;;;5.70;;
45114;SDS011;30877;43.706;10.780;2022-10-23T03:20:20;9.10;;;5.38;;
45114;SDS011;30877;43.706;10.780;2022-10-23T03:22:49;7.82;;;5.10;;
45114;SDS011;30877;43.706;10.780;2022-10-23T03:25:17;8.65;;;5.38;;
45114;SDS011;30877;43.706;10.780;2022-10-23T03:27:46;9.40;;;5.80;;
45114;SDS011;30877;43.706;10.780;2022-10-23T03:30:15;8.40;;;5.15;;
45114;SDS011;30877;43.706;10.780;2022-10-23T03:32:49;6.85;;;5.40;;
45114;SDS011;30877;43.706;10.780;2022-10-23T03:35:17;9.77;;;5.93;;
45114;SDS011;30877;43.706;10.780;2022-10-23T03:37:45;9.13;;;5.55;;
45114;SDS011;30877;43.706;10.780;2022-10-23T03:40:14;11.18;;;5.75;;
45114;SDS011;30877;43.706;10.780;2022-10-23T03:42:43;8.25;;;4.97;;
45114;SDS011;30877;43.706;10.780;2022-10-23T03:45:15;9.70;;;5.15;;
45114;SDS011;30877;43.706;10.780;2022-10-23T03:47:43;9.10;;;5.13;;
45114;SDS011;30877;43.706;10.780;2022-10-23T03:50:14;8.15;;;5.50;;
45114;SDS011;30877;43.706;10.780;2022-10-23T03:52:42;9.10;;;5.45;;
45114;SDS011;30877;43.706;10.780;2022-10-23T03:55:11;7.28;;;5.35;;
45114;SDS011;30877;43.706;10.780;2022-10-23T03:57:40;9.48;;;5.32;;
45114;SDS011;30877;43.706;10.780;2022-10-23T04:00:09;8.15;;;5.60;;
45114;SDS011;30877;43.706;10.780;2022-10-23T04:02:44;9.88;;;5.72;;
45114;SDS011;30877;43.706;10.780;2022-10-23T04:05:15;8.15;;;5.45;;
45114;SDS011;30877;43.706;10.780;2022-10-23T04:07:52;10.38;;;5.18;;
45114;SDS011;30877;43.706;10.780;2022-10-23T04:10:20;6.13;;;5.28;;
45114;SDS011;30877;43.706;10.780;2022-10-23T04:12:49;9.38;;;5.20;;
45114;SDS011;30877;43.706;10.780;2022-10-23T04:15:17;8.68;;;5.82;;
45114;SDS011;30877;43.706;10.780;2022-10-23T04:17:45;8.18;;;5.13;;
45114;SDS011;30877;43.706;10.780;2022-10-23T04:20:15;8.25;;;6.18;;
45114;SDS011;30877;43.706;10.780;2022-10-23T04:22:43;7.15;;;5.05;;
45114;SDS011;30877;43.706;10.780;2022-10-23T04:25:12;8.55;;;5.25;;
45114;SDS011;30877;43.706;10.780;2022-10-23T04:27:40;9.25;;;5.50;;
45114;SDS011;30877;43.706;10.780;2022-10-23T04:30:10;9.27;;;5.68;;
45114;SDS011;30877;43.706;10.780;2022-10-23T04:32:39;9.52;;;5.40;;
45114;SDS011;30877;43.706;10.780;2022-10-23T04:35:07;8.73;;;5.88;;
45114;SDS011;30877;43.706;10.780;2022-10-23T04:37:37;8.55;;;5.45;;
45114;SDS011;30877;43.706;10.780;2022-10-23T04:40:06;7.78;;;5.43;;
45114;SDS011;30877;43.706;10.780;2022-10-23T04:42:36;9.57;;;5.38;;
45114;SDS011;30877;43.706;10.780;2022-10-23T04:45:05;9.32;;;5.70;;
45114;SDS011;30877;43.706;10.780;2022-10-23T04:47:34;10.45;;;6.00;;
45114;SDS011;30877;43.706;10.780;2022-10-23T04:50:02;8.32;;;5.60;;
45114;SDS011;30877;43.706;10.780;2022-10-23T04:53:11;12.55;;;6.53;;
45114;SDS011;30877;43.706;10.780;2022-10-23T04:55:59;7.28;;;5.95;;
45114;SDS011;30877;43.706;10.780;2022-10-23T04:58:43;7.18;;;5.93;;
45114;SDS011;30877;43.706;10.780;2022-10-23T05:01:11;7.45;;;5.50;;
45114;SDS011;30877;43.706;10.780;2022-10-23T05:03:40;9.15;;;5.30;;
45114;SDS011;30877;43.706;10.780;2022-10-23T05:06:08;8.82;;;5.78;;
45114;SDS011;30877;43.706;10.780;2022-10-23T05:08:56;7.70;;;5.18;;
45114;SDS011;30877;43.706;10.780;2022-10-23T05:11:43;10.88;;;5.93;;
45114;SDS011;30877;43.706;10.780;2022-10-23T05:14:12;7.85;;;5.85;;
45114;SDS011;30877;43.706;10.780;2022-10-23T05:16:45;10.75;;;6.07;;
45114;SDS011;30877;43.706;10.780;2022-10-23T05:19:19;7.90;;;4.97;;
45114;SDS011;30877;43.706;10.780;2022-10-23T05:21:50;8.95;;;5.97;;
45114;SDS011;30877;43.706;10.780;2022-10-23T05:24:32;8.77;;;5.78;;
45114;SDS011;30877;43.706;10.780;2022-10-23T05:27:01;9.85;;;6.03;;
45114;SDS011;30877;43.706;10.780;2022-10-23T05:29:30;8.52;;;6.00;;
45114;SDS011;30877;43.706;10.780;2022-10-23T05:31:59;6.22;;;5.40;;
45114;SDS011;30877;43.706;10.780;2022-10-23T05:34:30;8.30;;;6.05;;
45114;SDS011;30877;43.706;10.780;2022-10-23T05:37:02;8.60;;;5.78;;
45114;SDS011;30877;43.706;10.780;2022-10-23T05:39:39;6.68;;;5.65;;
45114;SDS011;30877;43.706;10.780;2022-10-23T05:42:13;10.20;;;5.85;;
45114;SDS011;30877;43.706;10.780;2022-10-23T05:44:41;10.18;;;6.53;;
45114;SDS011;30877;43.706;10.780;2022-10-23T05:47:29;8.85;;;5.97;;
45114;SDS011;30877;43.706;10.780;2022-10-23T05:50:17;8.65;;;5.82;;
45114;SDS011;30877;43.706;10.780;2022-10-23T05:53:08;8.18;;;5.95;;
45114;SDS011;30877;43.706;10.780;2022-10-23T05:56:03;10.15;;;6.00;;
45114;SDS011;30877;43.706;10.780;2022-10-23T05:59:04;9.60;;;6.68;;
45114;SDS011;30877;43.706;10.780;2022-10-23T06:01:51;9.23;;;7.18;;
45114;SDS011;30877;43.706;10.780;2022-10-23T06:04:32;10.07;;;7.38;;
45114;SDS011;30877;43.706;10.780;2022-10-23T06:07:26;11.02;;;8.73;;
45114;SDS011;30877;43.706;10.780;2022-10-23T06:10:03;12.82;;;9.25;;
45114;SDS011;30877;43.706;10.780;2022-10-23T06:12:38;12.93;;;9.20;;
45114;SDS011;30877;43.706;10.780;2022-10-23T06:15:08;12.95;;;8.73;;
45114;SDS011;30877;43.706;10.780;2022-10-23T06:20:26;12.07;;;8.50;;
45114;SDS011;30877;43.706;10.780;2022-10-23T06:23:05;10.90;;;8.23;;
45114;SDS011;30877;43.706;10.780;2022-10-23T06:26:03;10.88;;;8.20;;
45114;SDS011;30877;43.706;10.780;2022-10-23T06:28:48;12.55;;;8.00;;
45114;SDS011;30877;43.706;10.780;2022-10-23T06:31:16;11.82;;;7.97;;
45114;SDS011;30877;43.706;10.780;2022-10-23T06:33:55;12.30;;;8.13;;
45114;SDS011;30877;43.706;10.780;2022-10-23T06:36:24;14.10;;;7.78;;
45114;SDS011;30877;43.706;10.780;2022-10-23T06:38:59;11.13;;;7.82;;
45114;SDS011;30877;43.706;10.780;2022-10-23T06:41:47;10.77;;;7.13;;
45114;SDS011;30877;43.706;10.780;2022-10-23T06:44:37;11.38;;;7.38;;
45114;SDS011;30877;43.706;10.780;2022-10-23T06:47:09;11.52;;;7.20;;
45114;SDS011;30877;43.706;10.780;2022-10-23T06:50:03;11.52;;;7.13;;
45114;SDS011;30877;43.706;10.780;2022-10-23T06:52:31;9.10;;;7.47;;
45114;SDS011;30877;43.706;10.780;2022-10-23T06:55:15;11.05;;;7.13;;
45114;SDS011;30877;43.706;10.780;2022-10-23T06:57:44;9.73;;;7.47;;
45114;SDS011;30877;43.706;10.780;2022-10-23T07:00:14;11.13;;;7.35;;
45114;SDS011;30877;43.706;10.780;2022-10-23T07:02:49;11.07;;;7.07;;
45114;SDS011;30877;43.706;10.780;2022-10-23T07:05:19;12.93;;;7.25;;
45114;SDS011;30877;43.706;10.780;2022-10-23T07:07:47;9.27;;;7.28;;
45114;SDS011;30877;43.706;10.780;2022-10-23T07:10:22;11.90;;;7.47;;
45114;SDS011;30877;43.706;10.780;2022-10-23T07:12:55;12.60;;;7.30;;
45114;SDS011;30877;43.706;10.780;2022-10-23T07:15:40;10.07;;;7.13;;
45114;SDS011;30877;43.706;10.780;2022-10-23T07:18:13;9.57;;;7.10;;
45114;SDS011;30877;43.706;10.780;2022-10-23T07:21:17;8.85;;;6.95;;
45114;SDS011;30877;43.706;10.780;2022-10-23T07:23:48;11.23;;;6.82;;
45114;SDS011;30877;43.706;10.780;2022-10-23T07:26:17;10.00;;;7.07;;
45114;SDS011;30877;43.706;10.780;2022-10-23T07:28:47;9.35;;;7.30;;
45114;SDS011;30877;43.706;10.780;2022-10-23T07:31:21;8.93;;;7.20;;
45114;SDS011;30877;43.706;10.780;2022-10-23T07:34:12;11.50;;;7.22;;
45114;SDS011;30877;43.706;10.780;2022-10-23T07:36:42;12.45;;;8.02;;
45114;SDS011;30877;43.706;10.780;2022-10-23T07:39:11;13.95;;;7.50;;
45114;SDS011;30877;43.706;10.780;2022-10-23T07:41:46;14.30;;;7.45;;
45114;SDS011;30877;43.706;10.780;2022-10-23T07:44:17;10.93;;;7.10;;
45114;SDS011;30877;43.706;10.780;2022-10-23T07:46:50;12.65;;;8.68;;
45114;SDS011;30877;43.706;10.780;2022-10-23T07:49:18;12.98;;;9.65;;
45114;SDS011;30877;43.706;10.780;2022-10-23T07:51:47;15.52;;;9.88;;
45114;SDS011;30877;43.706;10.780;2022-10-23T07:54:18;10.43;;;9.15;;
45114;SDS011;30877;43.706;10.780;2022-10-23T07:57:05;14.00;;;9.32;;
45114;SDS011;30877;43.706;10.780;2022-10-23T07:59:41;12.23;;;9.82;;
45114;SDS011;30877;43.706;10.780;2022-10-23T08:02:12;14.55;;;10.13;;
45114;SDS011;30877;43.706;10.780;2022-10-23T08:04:42;13.18;;;10.20;;
45114;SDS011;30877;43.706;10.780;2022-10-23T08:07:33;13.95;;;10.48;;
45114;SDS011;30877;43.706;10.780;2022-10-23T08:10:02;12.93;;;9.98;;
45114;SDS011;30877;43.706;10.780;2022-10-23T08:12:31;12.13;;;9.75;;
45114;SDS011;30877;43.706;10.780;2022-10-23T08:15:00;16.48;;;10.13;;
45114;SDS011;30877;43.706;10.780;2022-10-23T08:17:37;11.13;;;9.20;;
45114;SDS011;30877;43.706;10.780;2022-10-23T08:20:14;15.00;;;10.85;;
45114;SDS011;30877;43.706;10.780;2022-10-23T08:22:44;13.32;;;9.63;;
45114;SDS011;30877;43.706;10.780;2022-10-23T08:25:18;16.50;;;11.52;;
45114;SDS011;30877;43.706;10.780;2022-10-23T08:27:52;16.10;;;11.60;;
45114;SDS011;30877;43.706;10.780;2022-10-23T08:30:20;18.55;;;12.93;;
45114;SDS011;30877;43.706;10.780;2022-10-23T08:32:50;19.63;;;14.73;;
45114;SDS011;30877;43.706;10.780;2022-10-23T08:35:19;17.55;;;14.52;;
45114;SDS011;30877;43.706;10.780;2022-10-23T08:37:47;21.65;;;15.98;;
45114;SDS011;30877;43.706;10.780;2022-10-23T08:40:15;27.15;;;16.63;;
45114;SDS011;30877;43.706;10.780;2022-10-23T08:43:11;18.60;;;12.80;;
45114;SDS011;30877;43.706;10.780;2022-10-23T08:45:57;17.50;;;11.48;;
45114;SDS011;30877;43.706;10.780;2022-10-23T08:49:02;14.07;;;10.48;;
45114;SDS011;30877;43.706;10.780;2022-10-23T08:51:53;14.45;;;10.30;;
45114;SDS011;30877;43.706;10.780;2022-10-23T08:54:24;15.40;;;11.23;;
45114;SDS011;30877;43.706;10.780;2022-10-23T08:59:31;17.33;;;14.52;;
45114;SDS011;30877;43.706;10.780;2022-10-23T09:02:09;26.83;;;19.60;;
45114;SDS011;30877;43.706;10.780;2022-10-23T09:04:45;24.48;;;19.80;;
45114;SDS011;30877;43.706;10.780;2022-10-23T09:07:17;20.95;;;16.58;;
45114;SDS011;30877;43.706;10.780;2022-10-23T09:09:54;18.45;;;14.38;;
45114;SDS011;30877;43.706;10.780;2022-10-23T09:12:29;16.60;;;12.65;;
45114;SDS011;30877;43.706;10.780;2022-10-23T09:15:01;12.68;;;9.75;;
45114;SDS011;30877;43.706;10.780;2022-10-23T09:17:45;13.40;;;9.27;;
45114;SDS011;30877;43.706;10.780;2022-10-23T09:20:20;16.02;;;9.07;;
45114;SDS011;30877;43.706;10.780;2022-10-23T09:22:52;12.93;;;8.82;;
45114;SDS011;30877;43.706;10.780;2022-10-23T09:25:24;10.60;;;7.80;;
45114;SDS011;30877;43.706;10.780;2022-10-23T09:27:56;12.40;;;7.32;;
45114;SDS011;30877;43.706;10.780;2022-10-23T09:30:32;11.55;;;7.40;;
45114;SDS011;30877;43.706;10.780;2022-10-23T09:33:11;12.13;;;8.02;;
45114;SDS011;30877;43.706;10.780;2022-10-23T09:35:52;11.05;;;7.32;;
45114;SDS011;30877;43.706;10.780;2022-10-23T09:38:27;11.98;;;8.07;;
45114;SDS011;30877;43.706;10.780;2022-10-23T09:40:58;12.93;;;7.78;;
45114;SDS011;30877;43.706;10.780;2022-10-23T09:43:28;15.98;;;8.75;;
45114;SDS011;30877;43.706;10.780;2022-10-23T09:46:02;11.90;;;7.78;;
45114;SDS011;30877;43.706;10.780;2022-10-23T09:48:34;11.93;;;8.18;;
45114;SDS011;30877;43.706;10.780;2022-10-23T09:51:14;15.00;;;9.50;;
45114;SDS011;30877;43.706;10.780;2022-10-23T09:53:48;13.63;;;8.80;;
45114;SDS011;30877;43.706;10.780;2022-10-23T09:56:23;16.02;;;9.63;;
45114;SDS011;30877;43.706;10.780;2022-10-23T09:58:54;13.20;;;8.30;;
45114;SDS011;30877;43.706;10.780;2022-10-23T10:01:26;13.30;;;8.15;;
45114;SDS011;30877;43.706;10.780;2022-10-23T10:04:13;11.95;;;7.80;;
45114;SDS011;30877;43.706;10.780;2022-10-23T10:06:43;10.02;;;8.35;;
45114;SDS011;30877;43.706;10.780;2022-10-23T10:09:12;11.23;;;8.48;;
45114;SDS011;30877;43.706;10.780;2022-10-23T10:11:54;13.15;;;8.15;;
45114;SDS011;30877;43.706;10.780;2022-10-23T10:14:31;11.07;;;8.27;;
45114;SDS011;30877;43.706;10.780;2022-10-23T10:17:12;12.65;;;8.07;;
45114;SDS011;30877;43.706;10.780;2022-10-23T10:19:55;80.47;;;12.85;;
45114;SDS011;30877;43.706;10.780;2022-10-23T10:22:37;28.15;;;8.48;;
45114;SDS011;30877;43.706;10.780;2022-10-23T10:25:09;13.88;;;8.80;;
45114;SDS011;30877;43.706;10.780;2022-10-23T10:27:49;11.57;;;8.18;;
45114;SDS011;30877;43.706;10.780;2022-10-23T10:30:23;10.73;;;7.80;;
45114;SDS011;30877;43.706;10.780;2022-10-23T10:32:57;13.07;;;7.88;;
45114;SDS011;30877;43.706;10.780;2022-10-23T10:35:33;12.57;;;7.18;;
45114;SDS011;30877;43.706;10.780;2022-10-23T10:38:14;11.55;;;7.53;;
45114;SDS011;30877;43.706;10.780;2022-10-23T10:41:09;9.30;;;7.72;;
45114;SDS011;30877;43.706;10.780;2022-10-23T10:43:49;9.20;;;7.43;;
45114;SDS011;30877;43.706;10.780;2022-10-23T10:46:26;7.90;;;6.90;;
45114;SDS011;30877;43.706;10.780;2022-10-23T10:49:04;13.43;;;7.18;;
45114;SDS011;30877;43.706;10.780;2022-10-23T10:51:58;12.70;;;8.20;;
45114;SDS011;30877;43.706;10.780;2022-10-23T10:54:45;13.35;;;7.22;;
45114;SDS011;30877;43.706;10.780;2022-10-23T10:57:25;11.23;;;7.10;;
45114;SDS011;30877;43.706;10.780;2022-10-23T10:59:59;10.10;;;6.93;;
45114;SDS011;30877;43.706;10.780;2022-10-23T11:02:31;12.13;;;7.30;;
45114;SDS011;30877;43.706;10.780;2022-10-23T11:05:09;10.35;;;7.05;;
45114;SDS011;30877;43.706;10.780;2022-10-23T11:07:47;12.55;;;7.18;;
45114;SDS011;30877;43.706;10.780;2022-10-23T11:10:21;10.05;;;7.30;;
45114;SDS011;30877;43.706;10.780;2022-10-23T11:12:50;12.02;;;7.70;;
45114;SDS011;30877;43.706;10.780;2022-10-23T11:15:20;12.30;;;7.60;;
45114;SDS011;30877;43.706;10.780;2022-10-23T11:17:52;10.43;;;6.60;;
45114;SDS011;30877;43.706;10.780;2022-10-23T11:20:35;11.65;;;6.95;;
45114;SDS011;30877;43.706;10.780;2022-10-23T11:23:25;11.85;;;6.88;;
45114;SDS011;30877;43.706;10.780;2022-10-23T11:26:21;9.38;;;6.35;;
45114;SDS011;30877;43.706;10.780;2022-10-23T11:29:19;10.98;;;6.50;;
45114;SDS011;30877;43.706;10.780;2022-10-23T11:32:06;11.13;;;7.05;;
45114;SDS011;30877;43.706;10.780;2022-10-23T11:34:58;10.38;;;6.72;;
45114;SDS011;30877;43.706;10.780;2022-10-23T11:37:42;12.00;;;6.80;;
45114;SDS011;30877;43.706;10.780;2022-10-23T11:41:16;10.25;;;5.85;;
45114;SDS011;30877;43.706;10.780;2022-10-23T11:44:25;14.00;;;7.07;;
45114;SDS011;30877;43.706;10.780;2022-10-23T11:50:15;8.50;;;6.55;;
45114;SDS011;30877;43.706;10.780;2022-10-23T11:52:53;10.77;;;6.68;;
45114;SDS011;30877;43.706;10.780;2022-10-23T11:55:57;10.50;;;6.32;;
45114;SDS011;30877;43.706;10.780;2022-10-23T11:58:38;9.63;;;6.30;;
45114;SDS011;30877;43.706;10.780;2022-10-23T12:01:20;9.65;;;6.78;;
45114;SDS011;30877;43.706;10.780;2022-10-23T12:04:04;12.70;;;7.18;;
45114;SDS011;30877;43.706;10.780;2022-10-23T12:06:43;9.60;;;6.20;;
45114;SDS011;30877;43.706;10.780;2022-10-23T12:09:21;15.70;;;7.30;;
45114;SDS011;30877;43.706;10.780;2022-10-23T12:12:13;11.57;;;6.43;;
45114;SDS011;30877;43.706;10.780;2022-10-23T12:14:45;10.45;;;6.45;;
45114;SDS011;30877;43.706;10.780;2022-10-23T12:17:29;12.60;;;6.70;;
45114;SDS011;30877;43.706;10.780;2022-10-23T12:20:11;14.02;;;6.70;;
45114;SDS011;30877;43.706;10.780;2022-10-23T12:23:04;10.88;;;7.32;;
45114;SDS011;30877;43.706;10.780;2022-10-23T12:29:05;8.02;;;6.05;;
45114;SDS011;30877;43.706;10.780;2022-10-23T12:31:47;9.13;;;6.35;;
45114;SDS011;30877;43.706;10.780;2022-10-23T12:34:25;10.55;;;7.15;;
45114;SDS011;30877;43.706;10.780;2022-10-23T12:37:08;12.50;;;7.78;;
45114;SDS011;30877;43.706;10.780;2022-10-23T12:40:05;13.93;;;7.72;;
45114;SDS011;30877;43.706;10.780;2022-10-23T12:42:35;8.68;;;7.43;;
45114;SDS011;30877;43.706;10.780;2022-10-23T12:45:12;9.20;;;5.78;;
45114;SDS011;30877;43.706;10.780;2022-10-23T12:47:46;12.05;;;6.88;;
45114;SDS011;30877;43.706;10.780;2022-10-23T12:50:16;9.73;;;6.30;;
45114;SDS011;30877;43.706;10.780;2022-10-23T12:52:49;9.40;;;6.68;;
45114;SDS011;30877;43.706;10.780;2022-10-23T12:55:19;12.68;;;6.32;;
45114;SDS011;30877;43.706;10.780;2022-10-23T12:57:47;11.45;;;6.85;;
45114;SDS011;30877;43.706;10.780;2022-10-23T13:00:17;10.27;;;6.30;;
45114;SDS011;30877;43.706;10.780;2022-10-23T13:02:57;15.18;;;9.68;;
45114;SDS011;30877;43.706;10.780;2022-10-23T13:05:27;10.18;;;7.65;;
45114;SDS011;30877;43.706;10.780;2022-10-23T13:07:58;11.60;;;7.60;;
45114;SDS011;30877;43.706;10.780;2022-10-23T13:10:45;12.48;;;6.68;;
45114;SDS011;30877;43.706;10.780;2022-10-23T13:13:19;14.20;;;7.35;;
45114;SDS011;30877;43.706;10.780;2022-10-23T13:15:50;10.10;;;6.15;;
45114;SDS011;30877;43.706;10.780;2022-10-23T13:18:19;9.18;;;5.97;;
45114;SDS011;30877;43.706;10.780;2022-10-23T13:20:55;10.07;;;6.38;;
45114;SDS011;30877;43.706;10.780;2022-10-23T13:23:26;11.45;;;6.55;;
45114;SDS011;30877;43.706;10.780;2022-10-23T13:25:59;8.40;;;6.32;;
45114;SDS011;30877;43.706;10.780;2022-10-23T13:28:30;13.00;;;6.40;;
45114;SDS011;30877;43.706;10.780;2022-10-23T13:31:03;12.48;;;6.05;;
45114;SDS011;30877;43.706;10.780;2022-10-23T13:33:37;11.50;;;6.13;;
45114;SDS011;30877;43.706;10.780;2022-10-23T13:36:19;9.05;;;6.35;;
45114;SDS011;30877;43.706;10.780;2022-10-23T13:39:00;12.27;;;6.05;;
45114;SDS011;30877;43.706;10.780;2022-10-23T13:41:34;11.57;;;6.13;;
45114;SDS011;30877;43.706;10.780;2022-10-23T13:44:04;10.73;;;6.05;;
45114;SDS011;30877;43.706;10.780;2022-10-23T13:46:33;8.98;;;5.93;;
45114;SDS011;30877;43.706;10.780;2022-10-23T13:49:02;11.93;;;6.88;;
45114;SDS011;30877;43.706;10.780;2022-10-23T13:51:32;8.55;;;6.13;;
45114;SDS011;30877;43.706;10.780;2022-10-23T13:54:11;10.85;;;6.30;;
45114;SDS011;30877;43.706;10.780;2022-10-23T13:56:41;10.90;;;6.50;;
45114;SDS011;30877;43.706;10.780;2022-10-23T13:59:10;9.13;;;6.45;;
45114;SDS011;30877;43.706;10.780;2022-10-23T14:01:38;10.45;;;6.45;;
45114;SDS011;30877;43.706;10.780;2022-10-23T14:04:09;11.68;;;6.03;;
45114;SDS011;30877;43.706;10.780;2022-10-23T14:06:38;11.23;;;6.60;;
45114;SDS011;30877;43.706;10.780;2022-10-23T14:09:08;8.98;;;6.40;;
45114;SDS011;30877;43.706;10.780;2022-10-23T14:11:42;10.07;;;5.82;;
45114;SDS011;30877;43.706;10.780;2022-10-23T14:14:10;12.90;;;5.97;;
45114;SDS011;30877;43.706;10.780;2022-10-23T14:16:38;9.82;;;6.40;;
45114;SDS011;30877;43.706;10.780;2022-10-23T14:19:09;10.38;;;6.65;;
45114;SDS011;30877;43.706;10.780;2022-10-23T14:21:37;14.60;;;7.22;;
45114;SDS011;30877;43.706;10.780;2022-10-23T14:24:07;9.40;;;6.53;;
45114;SDS011;30877;43.706;10.780;2022-10-23T14:26:35;11.50;;;7.47;;
45114;SDS011;30877;43.706;10.780;2022-10-23T14:29:04;7.53;;;5.97;;
45114;SDS011;30877;43.706;10.780;2022-10-23T14:31:37;9.02;;;6.38;;
45114;SDS011;30877;43.706;10.780;2022-10-23T14:34:05;7.80;;;6.53;;
45114;SDS011;30877;43.706;10.780;2022-10-23T14:36:35;15.20;;;7.00;;
45114;SDS011;30877;43.706;10.780;2022-10-23T14:39:16;9.95;;;6.82;;
45114;SDS011;30877;43.706;10.780;2022-10-23T14:41:44;9.82;;;6.20;;
45114;SDS011;30877;43.706;10.780;2022-10-23T14:44:13;10.85;;;6.93;;
45114;SDS011;30877;43.706;10.780;2022-10-23T14:46:41;10.30;;;6.57;;
45114;SDS011;30877;43.706;10.780;2022-10-23T14:49:09;9.10;;;6.68;;
45114;SDS011;30877;43.706;10.780;2022-10-23T14:51:39;13.65;;;6.57;;
45114;SDS011;30877;43.706;10.780;2022-10-23T14:54:08;11.63;;;6.57;;
45114;SDS011;30877;43.706;10.780;2022-10-23T14:56:36;12.32;;;7.32;;
45114;SDS011;30877;43.706;10.780;2022-10-23T14:59:06;9.43;;;7.25;;
45114;SDS011;30877;43.706;10.780;2022-10-23T15:01:37;12.50;;;6.32;;
45114;SDS011;30877;43.706;10.780;2022-10-23T15:04:11;11.15;;;7.00;;
45114;SDS011;30877;43.706;10.780;2022-10-23T15:06:42;10.93;;;6.68;;
45114;SDS011;30877;43.706;10.780;2022-10-23T15:09:13;10.32;;;7.00;;
45114;SDS011;30877;43.706;10.780;2022-10-23T15:11:42;13.45;;;7.20;;
45114;SDS011;30877;43.706;10.780;2022-10-23T15:14:10;11.40;;;6.82;;
45114;SDS011;30877;43.706;10.780;2022-10-23T15:16:38;11.63;;;6.43;;
45114;SDS011;30877;43.706;10.780;2022-10-23T15:19:09;10.00;;;6.45;;
45114;SDS011;30877;43.706;10.780;2022-10-23T15:21:46;11.77;;;6.63;;
45114;SDS011;30877;43.706;10.780;2022-10-23T15:24:14;11.95;;;6.55;;
45114;SDS011;30877;43.706;10.780;2022-10-23T15:26:44;13.27;;;7.15;;